createdAt,value
2023-04-07T00:00:16.191Z,0.55
2023-04-07T00:03:07.490Z,0.55
2023-04-07T00:05:36.130Z,0.58
2023-04-07T00:08:04.584Z,0.59
2023-04-07T00:10:32.885Z,0.61
2023-04-07T00:13:01.495Z,0.66
2023-04-07T00:15:30.236Z,0.70
2023-04-07T00:17:58.493Z,0.71
2023-04-07T00:20:26.720Z,0.69
2023-04-07T00:22:54.937Z,0.67
2023-04-07T00:25:23.198Z,0.66
2023-04-07T00:27:51.405Z,0.64
2023-04-07T00:30:19.820Z,0.64
2023-04-07T00:32:48.188Z,0.62
2023-04-07T00:35:16.607Z,0.59
2023-04-07T00:37:44.968Z,0.57
2023-04-07T00:40:13.243Z,0.57
2023-04-07T00:42:42.430Z,0.57
2023-04-07T00:45:11.751Z,0.55
2023-04-07T00:47:40.763Z,0.55
2023-04-07T00:50:09.387Z,0.55
2023-04-07T00:52:37.805Z,0.57
2023-04-07T00:55:06.528Z,0.60
2023-04-07T00:57:34.801Z,0.61
2023-04-07T01:00:06.846Z,0.62
2023-04-07T01:02:57.047Z,0.61
2023-04-07T01:05:51.914Z,0.63
2023-04-07T01:08:22.320Z,0.64
2023-04-07T01:10:56.999Z,0.67
2023-04-07T01:13:49.659Z,0.69
2023-04-07T01:16:37.236Z,0.69
2023-04-07T01:19:36.462Z,0.67
2023-04-07T01:22:30.587Z,0.67
2023-04-07T01:25:15.814Z,0.68
2023-04-07T01:27:53.099Z,0.69
2023-04-07T01:30:24.567Z,0.67
2023-04-07T01:32:54.652Z,0.66
2023-04-07T01:35:24.444Z,0.64
2023-04-07T01:37:53.438Z,0.63
2023-04-07T01:40:22.394Z,0.63
2023-04-07T01:42:52.582Z,0.63
2023-04-07T01:45:21.833Z,0.63
2023-04-07T01:47:53.170Z,0.61
2023-04-07T01:50:22.858Z,0.59
2023-04-07T01:52:52.924Z,0.60
2023-04-07T01:55:22.575Z,0.61
2023-04-07T01:58:05.983Z,0.63
2023-04-07T02:00:34.500Z,0.63
2023-04-07T02:03:27.688Z,0.64
2023-04-07T02:06:02.929Z,0.64
2023-04-07T02:08:33.735Z,0.65
2023-04-07T02:11:04.099Z,0.66
2023-04-07T02:13:37.612Z,0.67
2023-04-07T02:16:07.591Z,0.68
2023-04-07T02:18:38.005Z,0.68
2023-04-07T02:21:09.030Z,0.66
2023-04-07T02:23:38.033Z,0.64
2023-04-07T02:26:07.774Z,0.66
2023-04-07T02:28:36.203Z,0.67
2023-04-07T02:31:04.571Z,0.70
2023-04-07T02:33:33.960Z,0.70
2023-04-07T02:36:02.197Z,0.70
2023-04-07T02:38:32.281Z,0.70
2023-04-07T02:41:00.542Z,0.72
2023-04-07T02:43:31.847Z,0.72
2023-04-07T02:46:00.174Z,0.72
2023-04-07T02:48:28.514Z,0.70
2023-04-07T02:50:57.013Z,0.70
2023-04-07T02:53:25.352Z,0.72
2023-04-07T02:55:53.692Z,0.74
2023-04-07T02:58:22.228Z,0.77
2023-04-07T03:00:50.938Z,0.79
2023-04-07T03:03:23.281Z,0.80
2023-04-07T03:06:12.126Z,0.80
2023-04-07T03:08:48.446Z,0.78
2023-04-07T03:11:16.683Z,0.77
2023-04-07T03:13:44.977Z,0.76
2023-04-07T03:16:14.173Z,0.77
2023-04-07T03:18:53.437Z,0.76
2023-04-07T03:21:22.387Z,0.73
2023-04-07T03:23:51.235Z,0.72
2023-04-07T03:26:20.035Z,0.72
2023-04-07T03:28:48.414Z,0.72
2023-04-07T03:31:17.112Z,0.69
2023-04-07T03:33:46.206Z,0.67
2023-04-07T03:36:14.652Z,0.65
2023-04-07T03:38:43.235Z,0.64
2023-04-07T03:41:11.577Z,0.65
2023-04-07T03:43:40.075Z,0.65
2023-04-07T03:46:08.413Z,0.67
2023-04-07T03:48:36.859Z,0.69
2023-04-07T03:51:08.468Z,0.72
2023-04-07T03:53:36.678Z,0.75
2023-04-07T03:56:29.051Z,0.76
2023-04-07T03:58:59.234Z,0.76
2023-04-07T04:01:31.922Z,0.79
2023-04-07T04:04:05.916Z,0.83
2023-04-07T04:06:34.709Z,0.82
2023-04-07T04:09:10.095Z,0.79
2023-04-07T04:11:41.684Z,0.78
2023-04-07T04:14:10.022Z,0.78
2023-04-07T04:16:38.855Z,0.79
2023-04-07T04:19:12.695Z,0.80
2023-04-07T04:21:41.130Z,0.83
2023-04-07T04:24:09.430Z,0.85
2023-04-07T04:26:38.944Z,0.84
2023-04-07T04:29:11.758Z,0.84
2023-04-07T04:31:40.767Z,0.88
2023-04-07T04:34:10.455Z,0.88
2023-04-07T04:36:41.790Z,0.86
2023-04-07T04:39:10.198Z,0.85
2023-04-07T04:41:39.968Z,0.84
2023-04-07T04:44:08.858Z,0.83
2023-04-07T04:46:39.278Z,0.84
2023-04-07T04:49:08.142Z,0.87
2023-04-07T04:51:37.841Z,0.91
2023-04-07T04:54:13.126Z,0.94
2023-04-07T04:56:42.990Z,0.95
2023-04-07T04:59:32.262Z,0.97
2023-04-07T05:02:03.855Z,1.01
2023-04-07T05:04:33.439Z,1.07
2023-04-07T05:07:09.244Z,1.09
2023-04-07T05:09:37.527Z,1.12
2023-04-07T05:12:06.203Z,1.13
2023-04-07T05:14:38.613Z,1.13
2023-04-07T05:17:08.386Z,1.14
2023-04-07T05:19:36.830Z,1.17
2023-04-07T05:22:12.187Z,1.21
2023-04-07T05:24:50.435Z,1.23
2023-04-07T05:27:19.579Z,1.23
2023-04-07T05:29:50.696Z,1.22
2023-04-07T05:32:28.704Z,1.21
2023-04-07T05:34:57.851Z,1.22
2023-04-07T05:37:29.259Z,1.25
2023-04-07T05:39:58.445Z,1.26
2023-04-07T05:42:26.893Z,1.29
2023-04-07T05:44:56.435Z,1.32
2023-04-07T05:47:25.518Z,1.32
2023-04-07T05:49:54.277Z,1.31
2023-04-07T05:52:23.164Z,1.31
2023-04-07T05:54:57.056Z,1.29
2023-04-07T05:57:28.562Z,1.30
2023-04-07T05:59:58.170Z,1.31
2023-04-07T06:02:26.678Z,1.34
2023-04-07T06:04:55.572Z,1.36
2023-04-07T06:07:24.289Z,1.44
2023-04-07T06:09:52.655Z,1.52
2023-04-07T06:12:21.183Z,1.58
2023-04-07T06:14:55.674Z,1.67
2023-04-07T06:17:24.100Z,1.80
2023-04-07T06:19:52.523Z,1.87
2023-04-07T06:22:20.795Z,1.93
2023-04-07T06:24:49.195Z,1.94
2023-04-07T06:27:18.572Z,1.98
2023-04-07T06:29:49.064Z,2.06
2023-04-07T06:32:17.475Z,2.09
2023-04-07T06:34:46.200Z,2.09
2023-04-07T06:37:17.172Z,2.09
2023-04-07T06:39:45.620Z,2.11
2023-04-07T06:42:13.865Z,2.15
2023-04-07T06:44:50.315Z,2.21
2023-04-07T06:47:18.685Z,2.27
2023-04-07T06:49:46.928Z,2.31
2023-04-07T06:52:15.677Z,2.34
2023-04-07T06:54:44.426Z,2.38
2023-04-07T06:57:12.856Z,2.41
2023-04-07T06:59:41.381Z,2.40
2023-04-07T07:02:09.842Z,2.43
2023-04-07T07:04:39.084Z,2.48
2023-04-07T07:07:07.561Z,2.49
2023-04-07T07:09:35.726Z,2.47
2023-04-07T07:12:04.463Z,2.46
2023-04-07T07:14:33.024Z,2.47
2023-04-07T07:17:01.365Z,2.51
2023-04-07T07:19:29.635Z,2.55
2023-04-07T07:21:57.930Z,2.58
2023-04-07T07:24:26.193Z,2.54
2023-04-07T07:26:54.528Z,2.50
2023-04-07T07:29:23.059Z,2.48
2023-04-07T07:31:51.712Z,2.48
2023-04-07T07:34:20.148Z,2.51
2023-04-07T07:36:48.462Z,2.52
2023-04-07T07:39:16.679Z,2.51
2023-04-07T07:41:45.534Z,2.54
2023-04-07T07:44:13.910Z,2.55
2023-04-07T07:46:42.190Z,2.58
2023-04-07T07:49:10.549Z,2.62
2023-04-07T07:51:38.919Z,2.67
2023-04-07T07:54:07.272Z,2.76
2023-04-07T07:56:35.928Z,2.85
2023-04-07T07:59:08.634Z,2.91
2023-04-07T08:01:36.867Z,2.95
2023-04-07T08:04:05.829Z,2.99
2023-04-07T08:06:34.110Z,3.10
2023-04-07T08:09:02.704Z,3.15
2023-04-07T08:11:31.106Z,3.17
2023-04-07T08:13:59.370Z,3.21
2023-04-07T08:16:27.835Z,3.25
2023-04-07T08:18:59.213Z,3.29
2023-04-07T08:21:28.620Z,3.37
2023-04-07T08:23:57.840Z,3.48
2023-04-07T08:26:26.253Z,3.50
2023-04-07T08:28:58.749Z,3.51
2023-04-07T08:31:27.717Z,3.53
2023-04-07T08:33:58.386Z,3.58
2023-04-07T08:36:28.319Z,3.71
2023-04-07T08:38:58.806Z,3.87
2023-04-07T08:41:44.407Z,3.97
2023-04-07T08:44:18.890Z,4.09
2023-04-07T08:46:50.564Z,4.16
2023-04-07T08:49:21.463Z,4.18
2023-04-07T08:51:51.913Z,4.19
2023-04-07T08:54:22.731Z,4.25
2023-04-07T08:56:51.998Z,4.33
2023-04-07T08:59:26.995Z,4.38
2023-04-07T09:01:56.870Z,4.41
2023-04-07T09:04:27.791Z,4.45
2023-04-07T09:06:57.361Z,4.46
2023-04-07T09:09:26.220Z,4.43
2023-04-07T09:11:54.736Z,4.36
2023-04-07T09:14:25.140Z,4.19
2023-04-07T09:16:55.206Z,4.05
2023-04-07T09:19:27.581Z,4.03
2023-04-07T09:21:56.418Z,3.98
2023-04-07T09:24:31.755Z,3.93
2023-04-07T09:27:17.979Z,3.95
2023-04-07T09:29:48.105Z,3.92
2023-04-07T09:32:41.737Z,3.86
2023-04-07T09:35:10.645Z,3.80
2023-04-07T09:37:39.330Z,3.75
2023-04-07T09:40:08.807Z,3.77
2023-04-07T09:42:46.614Z,3.82
2023-04-07T09:45:33.973Z,3.81
2023-04-07T09:48:19.287Z,3.72
2023-04-07T09:50:52.260Z,3.67
2023-04-07T09:53:20.523Z,3.67
2023-04-07T09:55:50.454Z,3.67
2023-04-07T09:58:19.653Z,3.69
2023-04-07T10:00:48.162Z,3.76
2023-04-07T10:03:17.113Z,3.79
2023-04-07T10:05:46.964Z,3.76
2023-04-07T10:08:15.837Z,3.76
2023-04-07T10:10:44.608Z,3.80
2023-04-07T10:13:13.284Z,3.85
2023-04-07T10:15:41.851Z,3.93
2023-04-07T10:18:11.096Z,4.01
2023-04-07T10:20:42.307Z,4.06
2023-04-07T10:23:24.460Z,4.11
2023-04-07T10:25:56.826Z,4.11
2023-04-07T10:28:28.296Z,4.11
2023-04-07T10:30:58.248Z,4.17
2023-04-07T10:33:53.488Z,4.27
2023-04-07T10:36:22.230Z,4.32
2023-04-07T10:39:23.775Z,4.36
2023-04-07T10:41:52.461Z,4.32
2023-04-07T10:44:39.169Z,4.16
2023-04-07T10:47:08.056Z,4.06
2023-04-07T10:49:36.729Z,3.98
2023-04-07T10:52:15.028Z,3.95
2023-04-07T10:54:43.491Z,3.90
2023-04-07T10:57:14.612Z,3.86
2023-04-07T11:00:12.014Z,3.83
2023-04-07T11:02:41.617Z,3.81
2023-04-07T11:05:21.895Z,3.76
2023-04-07T11:07:54.255Z,3.69
2023-04-07T11:10:23.520Z,3.65
2023-04-07T11:13:06.547Z,3.59
2023-04-07T11:15:39.382Z,3.53
2023-04-07T11:18:14.634Z,3.46
2023-04-07T11:20:53.481Z,3.46
2023-04-07T11:23:25.360Z,3.47
2023-04-07T11:26:02.237Z,3.43
2023-04-07T11:28:31.775Z,3.41
2023-04-07T11:31:00.609Z,3.42
2023-04-07T11:33:31.791Z,3.42
2023-04-07T11:36:02.365Z,3.42
2023-04-07T11:38:39.139Z,3.43
2023-04-07T11:41:14.535Z,3.38
2023-04-07T11:43:43.032Z,3.31
2023-04-07T11:46:17.473Z,3.32
2023-04-07T11:48:47.569Z,3.36
2023-04-07T11:51:21.426Z,3.42
2023-04-07T11:53:57.081Z,3.44
2023-04-07T11:56:28.314Z,3.50
2023-04-07T11:58:57.392Z,3.59
2023-04-07T12:01:40.901Z,3.65
2023-04-07T12:04:14.395Z,3.76
2023-04-07T12:06:44.290Z,3.91
2023-04-07T12:09:27.513Z,4.06
2023-04-07T12:11:58.122Z,4.19
2023-04-07T12:14:28.038Z,4.25
2023-04-07T12:16:58.286Z,4.29
2023-04-07T12:19:28.491Z,4.28
2023-04-07T12:21:57.397Z,4.26
2023-04-07T12:24:25.678Z,4.21
2023-04-07T12:26:53.998Z,4.14
2023-04-07T12:29:22.248Z,4.04
2023-04-07T12:31:51.357Z,4.00
2023-04-07T12:34:20.205Z,4.03
2023-04-07T12:36:48.781Z,4.04
2023-04-07T12:39:17.057Z,3.99
2023-04-07T12:41:47.728Z,3.97
2023-04-07T12:44:16.841Z,3.94
2023-04-07T12:46:45.485Z,3.87
2023-04-07T12:49:13.838Z,3.85
2023-04-07T12:51:42.295Z,3.83
2023-04-07T12:54:10.916Z,3.82
2023-04-07T12:56:40.985Z,3.82
2023-04-07T12:59:09.803Z,3.81
2023-04-07T13:01:38.400Z,3.81
2023-04-07T13:04:06.926Z,3.78
2023-04-07T13:06:35.347Z,3.77
2023-04-07T13:09:03.861Z,3.77
2023-04-07T13:11:32.038Z,3.76
2023-04-07T13:14:01.554Z,3.75
2023-04-07T13:16:30.640Z,3.71
2023-04-07T13:18:58.936Z,3.71
2023-04-07T13:21:45.211Z,3.75
2023-04-07T13:24:15.117Z,3.78
2023-04-07T13:26:43.478Z,3.78
2023-04-07T13:29:11.684Z,3.79
2023-04-07T13:31:39.995Z,3.77
2023-04-07T13:34:08.635Z,3.75
2023-04-07T13:36:36.927Z,3.72
2023-04-07T13:39:05.505Z,3.70
2023-04-07T13:41:34.295Z,3.71
2023-04-07T13:44:02.649Z,3.68
2023-04-07T13:46:31.420Z,3.63
2023-04-07T13:49:00.055Z,3.59
2023-04-07T13:51:29.540Z,3.56
2023-04-07T13:53:57.859Z,3.53
2023-04-07T13:56:26.215Z,3.53
2023-04-07T13:58:54.883Z,3.50
2023-04-07T14:01:24.196Z,3.50
2023-04-07T14:03:53.037Z,3.52
2023-04-07T14:06:24.376Z,3.53
2023-04-07T14:08:53.210Z,3.53
2023-04-07T14:11:22.820Z,3.55
2023-04-07T14:13:53.158Z,3.57
2023-04-07T14:16:21.693Z,3.59
2023-04-07T14:18:51.613Z,3.61
2023-04-07T14:21:20.050Z,3.64
2023-04-07T14:23:48.996Z,3.64
2023-04-07T14:26:17.255Z,3.66
2023-04-07T14:28:45.945Z,3.72
2023-04-07T14:31:17.901Z,3.78
2023-04-07T14:33:46.941Z,3.85
2023-04-07T14:36:17.012Z,3.90
2023-04-07T14:38:45.422Z,3.93
2023-04-07T14:41:13.719Z,3.94
2023-04-07T14:43:42.654Z,3.93
2023-04-07T14:46:12.521Z,3.92
2023-04-07T14:48:41.148Z,3.92
2023-04-07T14:51:13.132Z,3.95
2023-04-07T14:53:42.214Z,3.97
2023-04-07T14:56:10.730Z,3.99
2023-04-07T14:58:40.915Z,4.01
2023-04-07T15:01:09.341Z,3.98
2023-04-07T15:03:37.852Z,3.97
2023-04-07T15:06:08.738Z,3.95
2023-04-07T15:08:37.877Z,3.96
2023-04-07T15:11:10.341Z,3.95
2023-04-07T15:13:38.533Z,3.94
2023-04-07T15:16:11.632Z,3.93
2023-04-07T15:18:42.878Z,3.91
2023-04-07T15:21:12.517Z,3.90
2023-04-07T15:23:42.065Z,3.87
2023-04-07T15:26:11.081Z,3.86
2023-04-07T15:28:39.461Z,3.86
2023-04-07T15:31:09.149Z,3.84
2023-04-07T15:33:39.518Z,3.80
2023-04-07T15:36:09.245Z,3.72
2023-04-07T15:38:39.478Z,3.66
2023-04-07T15:41:07.935Z,3.65
2023-04-07T15:43:36.994Z,3.64
2023-04-07T15:46:05.602Z,3.65
2023-04-07T15:48:33.931Z,3.65
2023-04-07T15:51:02.315Z,3.65
2023-04-07T15:53:31.016Z,3.63
2023-04-07T15:55:59.374Z,3.61
2023-04-07T15:58:27.690Z,3.59
2023-04-07T16:00:56.214Z,3.59
2023-04-07T16:03:24.942Z,3.58
2023-04-07T16:05:54.134Z,3.57
2023-04-07T16:08:22.468Z,3.54
2023-04-07T16:10:55.416Z,3.51
2023-04-07T16:13:23.778Z,3.49
2023-04-07T16:15:56.984Z,3.51
2023-04-07T16:18:25.658Z,3.54
2023-04-07T16:20:53.910Z,3.58
2023-04-07T16:23:22.222Z,3.62
2023-04-07T16:25:50.480Z,3.64
2023-04-07T16:28:18.789Z,3.67
2023-04-07T16:30:47.054Z,3.69
2023-04-07T16:33:15.549Z,3.71
2023-04-07T16:35:43.905Z,3.74
2023-04-07T16:38:12.449Z,3.76
2023-04-07T16:40:44.097Z,3.73
2023-04-07T16:43:16.298Z,3.69
2023-04-07T16:45:50.290Z,3.67
2023-04-07T16:48:19.354Z,3.68
2023-04-07T16:50:47.771Z,3.66
2023-04-07T16:53:16.013Z,3.61
2023-04-07T16:55:44.284Z,3.57
2023-04-07T16:58:12.649Z,3.52
2023-04-07T17:00:40.950Z,3.48
2023-04-07T17:03:09.345Z,3.48
2023-04-07T17:05:37.827Z,3.48
2023-04-07T17:08:06.039Z,3.46
2023-04-07T17:10:34.286Z,3.47
2023-04-07T17:13:02.552Z,3.45
2023-04-07T17:15:30.816Z,3.43
2023-04-07T17:17:59.768Z,3.43
2023-04-07T17:20:28.178Z,3.46
2023-04-07T17:22:56.524Z,3.47
2023-04-07T17:25:24.954Z,3.46
2023-04-07T17:27:55.249Z,3.45
2023-04-07T17:30:23.533Z,3.45
2023-04-07T17:32:53.400Z,3.42
2023-04-07T17:35:22.739Z,3.40
2023-04-07T17:37:51.965Z,3.39
2023-04-07T17:40:20.480Z,3.38
2023-04-07T17:42:49.791Z,3.37
2023-04-07T17:45:18.211Z,3.34
2023-04-07T17:47:46.580Z,3.32
2023-04-07T17:50:16.435Z,3.30
2023-04-07T17:52:45.324Z,3.26
2023-04-07T17:55:13.829Z,3.26
2023-04-07T17:57:42.334Z,3.24
2023-04-07T18:00:11.208Z,3.18
2023-04-07T18:02:43.499Z,3.14
2023-04-07T18:05:12.528Z,3.13
2023-04-07T18:07:41.303Z,3.12
2023-04-07T18:10:10.122Z,3.08
2023-04-07T18:12:39.080Z,3.05
2023-04-07T18:15:08.149Z,3.04
2023-04-07T18:17:37.013Z,3.04
2023-04-07T18:20:06.060Z,3.02
2023-04-07T18:22:34.434Z,3.01
2023-04-07T18:25:03.006Z,2.99
2023-04-07T18:27:31.376Z,3.00
2023-04-07T18:29:59.661Z,2.97
2023-04-07T18:32:28.012Z,2.93
2023-04-07T18:34:56.465Z,2.92
2023-04-07T18:37:24.974Z,2.91
2023-04-07T18:39:53.909Z,2.91
2023-04-07T18:42:22.140Z,2.91
2023-04-07T18:44:50.692Z,2.89
2023-04-07T18:47:19.014Z,2.89
2023-04-07T18:49:47.266Z,2.90
2023-04-07T18:52:15.545Z,2.91
2023-04-07T18:54:44.602Z,2.92
2023-04-07T18:57:12.757Z,2.94
2023-04-07T18:59:40.997Z,2.95
2023-04-07T19:02:09.463Z,2.94
2023-04-07T19:04:37.784Z,2.93
2023-04-07T19:07:06.188Z,2.93
2023-04-07T19:09:34.544Z,2.98
2023-04-07T19:12:02.747Z,3.02
2023-04-07T19:14:30.994Z,3.03
2023-04-07T19:16:59.426Z,3.02
2023-04-07T19:19:28.505Z,3.00
2023-04-07T19:21:56.710Z,3.01
2023-04-07T19:24:26.062Z,3.03
2023-04-07T19:26:54.279Z,3.05
2023-04-07T19:29:22.675Z,3.07
2023-04-07T19:31:53.027Z,3.07
2023-04-07T19:34:21.427Z,3.07
2023-04-07T19:36:49.694Z,3.09
2023-04-07T19:39:18.024Z,3.10
2023-04-07T19:41:46.381Z,3.11
2023-04-07T19:44:14.971Z,3.10
2023-04-07T19:46:43.411Z,3.10
2023-04-07T19:49:11.737Z,3.10
2023-04-07T19:51:41.589Z,3.09
2023-04-07T19:54:09.859Z,3.06
2023-04-07T19:56:38.564Z,3.05
2023-04-07T19:59:07.518Z,3.05
2023-04-07T20:01:36.013Z,3.05
2023-04-07T20:04:04.545Z,3.07
2023-04-07T20:06:33.901Z,3.05
2023-04-07T20:09:02.527Z,3.03
2023-04-07T20:11:30.808Z,3.07
2023-04-07T20:13:59.166Z,3.10
2023-04-07T20:16:27.514Z,3.13
2023-04-07T20:18:55.854Z,3.16
2023-04-07T20:21:24.280Z,3.18
2023-04-07T20:23:52.645Z,3.18
2023-04-07T20:26:22.202Z,3.17
2023-04-07T20:28:51.039Z,3.16
2023-04-07T20:31:19.737Z,3.16
2023-04-07T20:33:48.451Z,3.15
2023-04-07T20:36:17.964Z,3.16
2023-04-07T20:38:48.037Z,3.15
2023-04-07T20:41:16.751Z,3.12
2023-04-07T20:43:45.164Z,3.09
2023-04-07T20:46:13.561Z,3.07
2023-04-07T20:48:42.135Z,3.05
2023-04-07T20:51:11.094Z,3.04
2023-04-07T20:53:40.852Z,3.07
2023-04-07T20:56:09.312Z,3.08
2023-04-07T20:58:37.612Z,3.09
2023-04-07T21:01:06.079Z,3.09
2023-04-07T21:03:35.971Z,3.05
2023-04-07T21:06:04.812Z,3.04
2023-04-07T21:08:33.201Z,3.00
2023-04-07T21:11:01.365Z,2.95
2023-04-07T21:13:29.711Z,2.91
2023-04-07T21:15:59.391Z,2.87
2023-04-07T21:18:27.778Z,2.85
2023-04-07T21:21:00.051Z,2.82
2023-04-07T21:23:28.441Z,2.82
2023-04-07T21:26:00.766Z,2.82
2023-04-07T21:28:29.280Z,2.81
2023-04-07T21:30:58.270Z,2.76
2023-04-07T21:33:26.923Z,2.71
2023-04-07T21:35:55.485Z,2.65
2023-04-07T21:38:23.868Z,2.56
2023-04-07T21:40:52.163Z,2.52
2023-04-07T21:43:20.526Z,2.47
2023-04-07T21:45:48.941Z,2.42
2023-04-07T21:48:20.880Z,2.37
2023-04-07T21:50:53.010Z,2.33
2023-04-07T21:53:21.607Z,2.29
2023-04-07T21:55:49.976Z,2.26
2023-04-07T21:58:18.310Z,2.24
2023-04-07T22:00:50.188Z,2.25
2023-04-07T22:03:19.454Z,2.23
2023-04-07T22:05:47.941Z,2.19
2023-04-07T22:08:16.803Z,2.15
2023-04-07T22:10:45.342Z,2.09
2023-04-07T22:13:13.575Z,2.06
2023-04-07T22:15:41.767Z,2.02
2023-04-07T22:18:11.783Z,1.96
2023-04-07T22:20:41.900Z,1.88
2023-04-07T22:23:10.392Z,1.75
2023-04-07T22:25:38.810Z,1.63
2023-04-07T22:28:07.118Z,1.56
2023-04-07T22:30:35.561Z,1.53
2023-04-07T22:33:04.909Z,1.52
2023-04-07T22:35:33.642Z,1.49
2023-04-07T22:38:02.014Z,1.46
2023-04-07T22:40:30.378Z,1.40
2023-04-07T22:42:58.565Z,1.35
2023-04-07T22:45:26.967Z,1.32
2023-04-07T22:47:55.246Z,1.28
2023-04-07T22:50:23.473Z,1.23
2023-04-07T22:52:51.754Z,1.20
2023-04-07T22:55:20.651Z,1.14
2023-04-07T22:57:48.933Z,1.10
2023-04-07T23:00:17.252Z,1.07
2023-04-07T23:02:45.808Z,1.05
2023-04-07T23:05:14.102Z,1.00
2023-04-07T23:07:42.443Z,0.96
2023-04-07T23:10:10.972Z,0.95
2023-04-07T23:12:39.300Z,0.92
2023-04-07T23:15:07.945Z,0.88
2023-04-07T23:17:36.871Z,0.85
2023-04-07T23:20:06.055Z,0.83
2023-04-07T23:22:34.357Z,0.78
2023-04-07T23:25:03.248Z,0.72
2023-04-07T23:27:32.861Z,0.65
2023-04-07T23:30:01.685Z,0.59
2023-04-07T23:32:30.207Z,0.48
2023-04-07T23:34:58.502Z,0.44
2023-04-07T23:37:26.863Z,0.39
2023-04-07T23:39:55.091Z,0.32
2023-04-07T23:42:24.004Z,0.24
2023-04-07T23:44:52.470Z,0.16
2023-04-07T23:47:21.544Z,0.13
2023-04-07T23:49:49.860Z,0.13
2023-04-07T23:52:21.400Z,0.14
2023-04-07T23:54:51.111Z,0.15
2023-04-07T23:57:19.443Z,0.15
2023-04-07T23:59:47.734Z,0.14
